sensor_id;sensor_type;location;lat;lon;timestamp;P1;durP1;ratioP1;P2;durP2;ratioP2
28862;SDS011;15994;51.796;13.006;2023-04-03T00:00:30;7.03;;;1.63;;
28862;SDS011;15994;51.796;13.006;2023-04-03T00:02:57;9.25;;;1.85;;
28862;SDS011;15994;51.796;13.006;2023-04-03T00:05:23;7.65;;;1.50;;
28862;SDS011;15994;51.796;13.006;2023-04-03T00:07:50;8.07;;;1.67;;
28862;SDS011;15994;51.796;13.006;2023-04-03T00:10:16;8.25;;;1.67;;
28862;SDS011;15994;51.796;13.006;2023-04-03T00:12:43;9.63;;;1.80;;
28862;SDS011;15994;51.796;13.006;2023-04-03T00:15:10;7.18;;;1.75;;
28862;SDS011;15994;51.796;13.006;2023-04-03T00:17:37;8.40;;;1.60;;
28862;SDS011;15994;51.796;13.006;2023-04-03T00:20:03;6.90;;;1.48;;
28862;SDS011;15994;51.796;13.006;2023-04-03T00:22:31;8.43;;;1.85;;
28862;SDS011;15994;51.796;13.006;2023-04-03T00:24:57;6.80;;;1.70;;
28862;SDS011;15994;51.796;13.006;2023-04-03T00:27:24;7.20;;;1.50;;
28862;SDS011;15994;51.796;13.006;2023-04-03T00:29:50;8.23;;;1.80;;
28862;SDS011;15994;51.796;13.006;2023-04-03T00:32:17;5.75;;;1.80;;
28862;SDS011;15994;51.796;13.006;2023-04-03T00:34:43;6.78;;;1.52;;
28862;SDS011;15994;51.796;13.006;2023-04-03T00:37:13;7.30;;;1.70;;
28862;SDS011;15994;51.796;13.006;2023-04-03T00:39:39;6.55;;;1.38;;
28862;SDS011;15994;51.796;13.006;2023-04-03T00:42:06;7.63;;;1.42;;
28862;SDS011;15994;51.796;13.006;2023-04-03T00:46:59;5.20;;;1.63;;
28862;SDS011;15994;51.796;13.006;2023-04-03T00:49:27;5.35;;;1.38;;
28862;SDS011;15994;51.796;13.006;2023-04-03T00:51:54;7.53;;;1.60;;
28862;SDS011;15994;51.796;13.006;2023-04-03T00:54:22;5.90;;;1.70;;
28862;SDS011;15994;51.796;13.006;2023-04-03T00:56:50;10.43;;;1.70;;
28862;SDS011;15994;51.796;13.006;2023-04-03T00:59:25;8.25;;;1.52;;
28862;SDS011;15994;51.796;13.006;2023-04-03T01:01:56;7.82;;;2.03;;
28862;SDS011;15994;51.796;13.006;2023-04-03T01:04:37;8.05;;;1.70;;
28862;SDS011;15994;51.796;13.006;2023-04-03T01:07:10;8.25;;;1.65;;
28862;SDS011;15994;51.796;13.006;2023-04-03T01:09:42;8.52;;;2.00;;
28862;SDS011;15994;51.796;13.006;2023-04-03T01:14:44;8.07;;;2.30;;
28862;SDS011;15994;51.796;13.006;2023-04-03T01:17:28;6.22;;;1.90;;
28862;SDS011;15994;51.796;13.006;2023-04-03T01:25:16;4.63;;;1.40;;
28862;SDS011;15994;51.796;13.006;2023-04-03T01:27:43;7.72;;;1.73;;
28862;SDS011;15994;51.796;13.006;2023-04-03T01:30:10;6.93;;;1.95;;
28862;SDS011;15994;51.796;13.006;2023-04-03T01:32:38;8.77;;;1.60;;
28862;SDS011;15994;51.796;13.006;2023-04-03T01:35:06;10.65;;;2.22;;
28862;SDS011;15994;51.796;13.006;2023-04-03T01:37:34;8.10;;;1.88;;
28862;SDS011;15994;51.796;13.006;2023-04-03T01:40:01;9.60;;;1.75;;
28862;SDS011;15994;51.796;13.006;2023-04-03T01:42:28;6.43;;;1.63;;
28862;SDS011;15994;51.796;13.006;2023-04-03T01:44:55;9.30;;;2.17;;
28862;SDS011;15994;51.796;13.006;2023-04-03T01:47:22;7.07;;;1.80;;
28862;SDS011;15994;51.796;13.006;2023-04-03T01:49:48;6.10;;;1.38;;
28862;SDS011;15994;51.796;13.006;2023-04-03T01:52:15;7.55;;;1.75;;
28862;SDS011;15994;51.796;13.006;2023-04-03T01:54:41;10.02;;;1.63;;
28862;SDS011;15994;51.796;13.006;2023-04-03T01:57:08;8.15;;;1.67;;
28862;SDS011;15994;51.796;13.006;2023-04-03T01:59:35;6.63;;;1.70;;
28862;SDS011;15994;51.796;13.006;2023-04-03T02:02:01;5.68;;;1.45;;
28862;SDS011;15994;51.796;13.006;2023-04-03T02:04:28;9.02;;;1.70;;
28862;SDS011;15994;51.796;13.006;2023-04-03T02:06:54;8.88;;;1.85;;
28862;SDS011;15994;51.796;13.006;2023-04-03T02:09:21;9.45;;;1.70;;
28862;SDS011;15994;51.796;13.006;2023-04-03T02:11:47;7.47;;;1.75;;
28862;SDS011;15994;51.796;13.006;2023-04-03T02:14:14;4.82;;;1.40;;
28862;SDS011;15994;51.796;13.006;2023-04-03T02:16:40;11.07;;;1.58;;
28862;SDS011;15994;51.796;13.006;2023-04-03T02:19:07;9.73;;;1.60;;
28862;SDS011;15994;51.796;13.006;2023-04-03T02:21:33;7.32;;;1.50;;
28862;SDS011;15994;51.796;13.006;2023-04-03T02:24:00;8.20;;;1.85;;
28862;SDS011;15994;51.796;13.006;2023-04-03T02:26:26;6.38;;;1.50;;
28862;SDS011;15994;51.796;13.006;2023-04-03T02:28:53;7.35;;;2.05;;
28862;SDS011;15994;51.796;13.006;2023-04-03T02:31:19;8.82;;;1.55;;
28862;SDS011;15994;51.796;13.006;2023-04-03T02:33:46;9.98;;;1.63;;
28862;SDS011;15994;51.796;13.006;2023-04-03T02:36:12;6.10;;;1.70;;
28862;SDS011;15994;51.796;13.006;2023-04-03T02:38:39;5.85;;;1.45;;
28862;SDS011;15994;51.796;13.006;2023-04-03T02:41:07;7.72;;;1.77;;
28862;SDS011;15994;51.796;13.006;2023-04-03T02:43:35;8.73;;;2.00;;
28862;SDS011;15994;51.796;13.006;2023-04-03T02:46:03;10.40;;;1.73;;
28862;SDS011;15994;51.796;13.006;2023-04-03T02:48:29;8.23;;;1.77;;
28862;SDS011;15994;51.796;13.006;2023-04-03T02:50:56;9.00;;;1.95;;
28862;SDS011;15994;51.796;13.006;2023-04-03T02:53:23;8.07;;;1.85;;
28862;SDS011;15994;51.796;13.006;2023-04-03T02:55:50;8.98;;;1.70;;
28862;SDS011;15994;51.796;13.006;2023-04-03T02:58:16;5.90;;;1.83;;
28862;SDS011;15994;51.796;13.006;2023-04-03T03:00:43;7.18;;;1.55;;
28862;SDS011;15994;51.796;13.006;2023-04-03T03:03:09;9.93;;;1.80;;
28862;SDS011;15994;51.796;13.006;2023-04-03T03:05:36;7.63;;;1.92;;
28862;SDS011;15994;51.796;13.006;2023-04-03T03:08:02;9.48;;;1.77;;
28862;SDS011;15994;51.796;13.006;2023-04-03T03:10:29;8.48;;;2.05;;
28862;SDS011;15994;51.796;13.006;2023-04-03T03:12:55;11.45;;;1.90;;
28862;SDS011;15994;51.796;13.006;2023-04-03T03:15:22;6.65;;;1.48;;
28862;SDS011;15994;51.796;13.006;2023-04-03T03:17:48;6.85;;;1.50;;
28862;SDS011;15994;51.796;13.006;2023-04-03T03:20:15;10.73;;;2.33;;
28862;SDS011;15994;51.796;13.006;2023-04-03T03:22:41;7.65;;;1.67;;
28862;SDS011;15994;51.796;13.006;2023-04-03T03:25:08;4.60;;;1.23;;
28862;SDS011;15994;51.796;13.006;2023-04-03T03:27:35;4.70;;;1.40;;
28862;SDS011;15994;51.796;13.006;2023-04-03T03:30:02;7.30;;;2.17;;
28862;SDS011;15994;51.796;13.006;2023-04-03T03:32:29;9.63;;;2.05;;
28862;SDS011;15994;51.796;13.006;2023-04-03T03:34:55;7.65;;;1.50;;
28862;SDS011;15994;51.796;13.006;2023-04-03T03:37:22;7.15;;;1.55;;
28862;SDS011;15994;51.796;13.006;2023-04-03T03:39:48;8.93;;;1.60;;
28862;SDS011;15994;51.796;13.006;2023-04-03T03:42:15;5.90;;;1.70;;
28862;SDS011;15994;51.796;13.006;2023-04-03T03:44:41;7.75;;;2.17;;
28862;SDS011;15994;51.796;13.006;2023-04-03T03:47:08;11.32;;;2.00;;
28862;SDS011;15994;51.796;13.006;2023-04-03T03:49:35;4.63;;;1.45;;
28862;SDS011;15994;51.796;13.006;2023-04-03T03:52:02;7.90;;;1.67;;
28862;SDS011;15994;51.796;13.006;2023-04-03T03:54:29;9.20;;;1.70;;
28862;SDS011;15994;51.796;13.006;2023-04-03T03:56:55;9.48;;;1.50;;
28862;SDS011;15994;51.796;13.006;2023-04-03T03:59:22;6.50;;;2.03;;
28862;SDS011;15994;51.796;13.006;2023-04-03T04:01:48;7.15;;;1.85;;
28862;SDS011;15994;51.796;13.006;2023-04-03T04:04:15;5.43;;;1.40;;
28862;SDS011;15994;51.796;13.006;2023-04-03T04:06:41;7.65;;;2.15;;
28862;SDS011;15994;51.796;13.006;2023-04-03T04:09:08;7.63;;;1.92;;
28862;SDS011;15994;51.796;13.006;2023-04-03T04:11:35;3.90;;;1.55;;
28862;SDS011;15994;51.796;13.006;2023-04-03T04:14:02;6.38;;;2.35;;
28862;SDS011;15994;51.796;13.006;2023-04-03T04:16:28;10.38;;;2.55;;
28862;SDS011;15994;51.796;13.006;2023-04-03T04:18:55;8.35;;;2.55;;
28862;SDS011;15994;51.796;13.006;2023-04-03T04:21:21;7.32;;;2.05;;
28862;SDS011;15994;51.796;13.006;2023-04-03T04:23:48;5.07;;;2.03;;
28862;SDS011;15994;51.796;13.006;2023-04-03T04:26:14;8.07;;;1.80;;
28862;SDS011;15994;51.796;13.006;2023-04-03T04:28:41;11.95;;;1.80;;
28862;SDS011;15994;51.796;13.006;2023-04-03T04:31:07;6.78;;;1.77;;
28862;SDS011;15994;51.796;13.006;2023-04-03T04:33:34;11.18;;;1.80;;
28862;SDS011;15994;51.796;13.006;2023-04-03T04:36:00;7.63;;;1.42;;
28862;SDS011;15994;51.796;13.006;2023-04-03T04:38:29;8.45;;;1.73;;
28862;SDS011;15994;51.796;13.006;2023-04-03T04:40:58;6.70;;;1.48;;
28862;SDS011;15994;51.796;13.006;2023-04-03T04:43:24;6.78;;;1.60;;
28862;SDS011;15994;51.796;13.006;2023-04-03T04:46:03;8.30;;;1.90;;
28862;SDS011;15994;51.796;13.006;2023-04-03T04:48:31;8.57;;;2.08;;
28862;SDS011;15994;51.796;13.006;2023-04-03T04:50:58;6.10;;;1.60;;
28862;SDS011;15994;51.796;13.006;2023-04-03T04:53:24;8.75;;;1.98;;
28862;SDS011;15994;51.796;13.006;2023-04-03T04:55:51;10.18;;;1.95;;
28862;SDS011;15994;51.796;13.006;2023-04-03T04:58:18;7.18;;;1.35;;
28862;SDS011;15994;51.796;13.006;2023-04-03T05:00:45;7.97;;;1.58;;
28862;SDS011;15994;51.796;13.006;2023-04-03T05:03:12;10.95;;;1.73;;
28862;SDS011;15994;51.796;13.006;2023-04-03T05:05:40;5.53;;;1.65;;
28862;SDS011;15994;51.796;13.006;2023-04-03T05:08:06;8.55;;;1.80;;
28862;SDS011;15994;51.796;13.006;2023-04-03T05:10:33;4.78;;;1.45;;
28862;SDS011;15994;51.796;13.006;2023-04-03T05:13:00;5.88;;;1.40;;
28862;SDS011;15994;51.796;13.006;2023-04-03T05:15:26;8.70;;;1.48;;
28862;SDS011;15994;51.796;13.006;2023-04-03T05:17:53;7.43;;;1.90;;
28862;SDS011;15994;51.796;13.006;2023-04-03T05:20:19;8.70;;;1.73;;
28862;SDS011;15994;51.796;13.006;2023-04-03T05:22:46;7.22;;;1.40;;
28862;SDS011;15994;51.796;13.006;2023-04-03T05:25:12;8.68;;;1.70;;
28862;SDS011;15994;51.796;13.006;2023-04-03T05:27:39;6.13;;;1.70;;
28862;SDS011;15994;51.796;13.006;2023-04-03T05:30:05;10.02;;;1.77;;
28862;SDS011;15994;51.796;13.006;2023-04-03T05:32:32;10.27;;;1.80;;
28862;SDS011;15994;51.796;13.006;2023-04-03T05:34:59;6.85;;;1.42;;
28862;SDS011;15994;51.796;13.006;2023-04-03T05:37:25;5.28;;;1.55;;
28862;SDS011;15994;51.796;13.006;2023-04-03T05:39:52;4.93;;;1.50;;
28862;SDS011;15994;51.796;13.006;2023-04-03T05:42:18;10.65;;;1.70;;
28862;SDS011;15994;51.796;13.006;2023-04-03T05:44:45;7.60;;;1.90;;
28862;SDS011;15994;51.796;13.006;2023-04-03T05:47:12;7.38;;;1.67;;
28862;SDS011;15994;51.796;13.006;2023-04-03T05:49:38;10.88;;;2.10;;
28862;SDS011;15994;51.796;13.006;2023-04-03T05:52:06;5.22;;;1.55;;
28862;SDS011;15994;51.796;13.006;2023-04-03T05:54:42;10.07;;;1.80;;
28862;SDS011;15994;51.796;13.006;2023-04-03T05:57:11;8.60;;;1.58;;
28862;SDS011;15994;51.796;13.006;2023-04-03T05:59:38;9.00;;;1.67;;
28862;SDS011;15994;51.796;13.006;2023-04-03T06:02:04;7.13;;;1.70;;
28862;SDS011;15994;51.796;13.006;2023-04-03T06:04:31;9.55;;;2.20;;
28862;SDS011;15994;51.796;13.006;2023-04-03T06:06:57;7.75;;;2.00;;
28862;SDS011;15994;51.796;13.006;2023-04-03T06:09:26;6.72;;;2.00;;
28862;SDS011;15994;51.796;13.006;2023-04-03T06:11:53;6.13;;;1.70;;
28862;SDS011;15994;51.796;13.006;2023-04-03T06:14:20;9.40;;;1.95;;
28862;SDS011;15994;51.796;13.006;2023-04-03T06:16:47;8.07;;;1.92;;
28862;SDS011;15994;51.796;13.006;2023-04-03T06:19:14;6.32;;;1.88;;
28862;SDS011;15994;51.796;13.006;2023-04-03T06:21:41;6.35;;;1.80;;
28862;SDS011;15994;51.796;13.006;2023-04-03T06:24:07;11.50;;;2.28;;
28862;SDS011;15994;51.796;13.006;2023-04-03T06:26:35;7.57;;;2.15;;
28862;SDS011;15994;51.796;13.006;2023-04-03T06:29:02;10.23;;;2.08;;
28862;SDS011;15994;51.796;13.006;2023-04-03T06:31:28;10.35;;;1.98;;
28862;SDS011;15994;51.796;13.006;2023-04-03T06:33:55;9.23;;;2.08;;
28862;SDS011;15994;51.796;13.006;2023-04-03T06:36:22;5.63;;;1.75;;
28862;SDS011;15994;51.796;13.006;2023-04-03T06:38:49;5.93;;;1.80;;
28862;SDS011;15994;51.796;13.006;2023-04-03T06:41:16;7.80;;;2.10;;
28862;SDS011;15994;51.796;13.006;2023-04-03T06:43:45;8.82;;;1.90;;
28862;SDS011;15994;51.796;13.006;2023-04-03T06:46:15;7.82;;;1.77;;
28862;SDS011;15994;51.796;13.006;2023-04-03T06:48:44;7.57;;;1.52;;
28862;SDS011;15994;51.796;13.006;2023-04-03T06:51:14;10.82;;;2.10;;
28862;SDS011;15994;51.796;13.006;2023-04-03T06:53:45;6.05;;;1.90;;
28862;SDS011;15994;51.796;13.006;2023-04-03T06:56:13;7.07;;;1.90;;
28862;SDS011;15994;51.796;13.006;2023-04-03T06:58:39;6.32;;;1.63;;
28862;SDS011;15994;51.796;13.006;2023-04-03T07:01:07;8.95;;;1.67;;
28862;SDS011;15994;51.796;13.006;2023-04-03T07:03:36;10.50;;;1.95;;
28862;SDS011;15994;51.796;13.006;2023-04-03T07:06:03;5.97;;;1.13;;
28862;SDS011;15994;51.796;13.006;2023-04-03T07:08:31;9.60;;;1.95;;
28862;SDS011;15994;51.796;13.006;2023-04-03T07:10:59;5.78;;;1.40;;
28862;SDS011;15994;51.796;13.006;2023-04-03T07:13:26;6.28;;;1.45;;
28862;SDS011;15994;51.796;13.006;2023-04-03T07:15:52;6.18;;;1.58;;
28862;SDS011;15994;51.796;13.006;2023-04-03T07:18:19;9.30;;;2.00;;
28862;SDS011;15994;51.796;13.006;2023-04-03T07:20:46;5.68;;;1.40;;
28862;SDS011;15994;51.796;13.006;2023-04-03T07:23:13;6.32;;;1.25;;
28862;SDS011;15994;51.796;13.006;2023-04-03T07:25:46;8.52;;;1.33;;
28862;SDS011;15994;51.796;13.006;2023-04-03T07:28:15;3.88;;;1.20;;
28862;SDS011;15994;51.796;13.006;2023-04-03T07:30:45;9.52;;;2.88;;
28862;SDS011;15994;51.796;13.006;2023-04-03T07:33:34;5.47;;;1.77;;
28862;SDS011;15994;51.796;13.006;2023-04-03T07:36:01;6.55;;;1.05;;
28862;SDS011;15994;51.796;13.006;2023-04-03T07:38:27;4.95;;;1.00;;
28862;SDS011;15994;51.796;13.006;2023-04-03T07:40:54;6.65;;;1.15;;
28862;SDS011;15994;51.796;13.006;2023-04-03T07:43:21;5.57;;;1.27;;
28862;SDS011;15994;51.796;13.006;2023-04-03T07:45:49;6.97;;;1.45;;
28862;SDS011;15994;51.796;13.006;2023-04-03T07:48:17;7.85;;;1.70;;
28862;SDS011;15994;51.796;13.006;2023-04-03T07:50:45;5.68;;;1.25;;
28862;SDS011;15994;51.796;13.006;2023-04-03T07:53:12;5.95;;;1.80;;
28862;SDS011;15994;51.796;13.006;2023-04-03T07:55:39;11.07;;;1.25;;
28862;SDS011;15994;51.796;13.006;2023-04-03T07:58:09;5.43;;;1.33;;
28862;SDS011;15994;51.796;13.006;2023-04-03T08:00:37;9.65;;;1.20;;
28862;SDS011;15994;51.796;13.006;2023-04-03T08:03:04;5.95;;;1.15;;
28862;SDS011;15994;51.796;13.006;2023-04-03T08:05:31;6.00;;;1.33;;
28862;SDS011;15994;51.796;13.006;2023-04-03T08:08:01;7.90;;;1.17;;
28862;SDS011;15994;51.796;13.006;2023-04-03T08:10:29;6.13;;;1.10;;
28862;SDS011;15994;51.796;13.006;2023-04-03T08:12:56;6.30;;;1.67;;
28862;SDS011;15994;51.796;13.006;2023-04-03T08:15:23;3.63;;;0.73;;
28862;SDS011;15994;51.796;13.006;2023-04-03T08:17:49;3.08;;;0.88;;
28862;SDS011;15994;51.796;13.006;2023-04-03T08:20:16;7.63;;;1.27;;
28862;SDS011;15994;51.796;13.006;2023-04-03T08:22:43;6.75;;;1.65;;
28862;SDS011;15994;51.796;13.006;2023-04-03T08:25:10;6.80;;;1.25;;
28862;SDS011;15994;51.796;13.006;2023-04-03T08:27:36;6.30;;;1.30;;
28862;SDS011;15994;51.796;13.006;2023-04-03T08:30:03;3.83;;;1.00;;
28862;SDS011;15994;51.796;13.006;2023-04-03T08:32:30;6.55;;;0.93;;
28862;SDS011;15994;51.796;13.006;2023-04-03T08:34:57;4.72;;;1.20;;
28862;SDS011;15994;51.796;13.006;2023-04-03T08:37:23;6.18;;;1.20;;
28862;SDS011;15994;51.796;13.006;2023-04-03T08:39:50;2.97;;;0.95;;
28862;SDS011;15994;51.796;13.006;2023-04-03T08:45:19;3.10;;;1.00;;
28862;SDS011;15994;51.796;13.006;2023-04-03T08:48:06;4.68;;;1.00;;
28862;SDS011;15994;51.796;13.006;2023-04-03T08:50:40;5.55;;;1.25;;
28862;SDS011;15994;51.796;13.006;2023-04-03T08:53:12;4.40;;;1.00;;
28862;SDS011;15994;51.796;13.006;2023-04-03T08:55:47;3.25;;;0.80;;
28862;SDS011;15994;51.796;13.006;2023-04-03T08:58:18;6.35;;;1.10;;
28862;SDS011;15994;51.796;13.006;2023-04-03T09:00:54;5.95;;;0.98;;
28862;SDS011;15994;51.796;13.006;2023-04-03T09:03:30;2.17;;;0.68;;
28862;SDS011;15994;51.796;13.006;2023-04-03T09:08:40;5.65;;;1.20;;
28862;SDS011;15994;51.796;13.006;2023-04-03T09:11:19;4.57;;;1.02;;
28862;SDS011;15994;51.796;13.006;2023-04-03T09:14:03;5.43;;;1.20;;
28862;SDS011;15994;51.796;13.006;2023-04-03T09:16:58;4.30;;;0.88;;
28862;SDS011;15994;51.796;13.006;2023-04-03T09:21:58;4.05;;;1.10;;
28862;SDS011;15994;51.796;13.006;2023-04-03T09:24:47;4.22;;;1.08;;
28862;SDS011;15994;51.796;13.006;2023-04-03T09:27:35;5.70;;;1.23;;
28862;SDS011;15994;51.796;13.006;2023-04-03T09:30:02;2.97;;;0.70;;
28862;SDS011;15994;51.796;13.006;2023-04-03T09:32:30;3.33;;;0.90;;
28862;SDS011;15994;51.796;13.006;2023-04-03T09:34:59;5.15;;;1.15;;
28862;SDS011;15994;51.796;13.006;2023-04-03T09:37:34;4.05;;;1.00;;
28862;SDS011;15994;51.796;13.006;2023-04-03T09:40:02;8.07;;;1.20;;
28862;SDS011;15994;51.796;13.006;2023-04-03T09:42:30;4.45;;;1.15;;
28862;SDS011;15994;51.796;13.006;2023-04-03T09:45:02;5.65;;;1.10;;
28862;SDS011;15994;51.796;13.006;2023-04-03T09:47:35;2.97;;;0.98;;
28862;SDS011;15994;51.796;13.006;2023-04-03T09:52:39;4.22;;;1.23;;
28862;SDS011;15994;51.796;13.006;2023-04-03T09:55:17;3.78;;;1.33;;
28862;SDS011;15994;51.796;13.006;2023-04-03T09:57:58;4.78;;;1.27;;
28862;SDS011;15994;51.796;13.006;2023-04-03T10:00:27;2.78;;;1.00;;
28862;SDS011;15994;51.796;13.006;2023-04-03T10:02:57;3.53;;;1.00;;
28862;SDS011;15994;51.796;13.006;2023-04-03T10:05:34;6.90;;;1.20;;
28862;SDS011;15994;51.796;13.006;2023-04-03T10:10:42;2.15;;;0.82;;
28862;SDS011;15994;51.796;13.006;2023-04-03T10:13:11;4.68;;;0.82;;
28862;SDS011;15994;51.796;13.006;2023-04-03T10:15:45;4.72;;;1.08;;
28862;SDS011;15994;51.796;13.006;2023-04-03T10:18:28;5.32;;;1.00;;
28862;SDS011;15994;51.796;13.006;2023-04-03T10:21:15;4.10;;;0.95;;
28862;SDS011;15994;51.796;13.006;2023-04-03T10:24:09;4.45;;;1.10;;
28862;SDS011;15994;51.796;13.006;2023-04-03T10:27:09;3.47;;;0.90;;
28862;SDS011;15994;51.796;13.006;2023-04-03T10:29:48;6.53;;;0.93;;
28862;SDS011;15994;51.796;13.006;2023-04-03T10:32:35;4.50;;;1.25;;
28862;SDS011;15994;51.796;13.006;2023-04-03T10:35:44;4.85;;;1.05;;
28862;SDS011;15994;51.796;13.006;2023-04-03T10:38:33;3.97;;;1.00;;
28862;SDS011;15994;51.796;13.006;2023-04-03T10:41:14;3.33;;;1.10;;
28862;SDS011;15994;51.796;13.006;2023-04-03T10:46:29;4.28;;;1.00;;
28862;SDS011;15994;51.796;13.006;2023-04-03T10:52:13;2.85;;;0.93;;
28862;SDS011;15994;51.796;13.006;2023-04-03T10:54:49;2.97;;;0.90;;
28862;SDS011;15994;51.796;13.006;2023-04-03T10:57:32;3.08;;;0.80;;
28862;SDS011;15994;51.796;13.006;2023-04-03T11:00:05;4.13;;;1.00;;
28862;SDS011;15994;51.796;13.006;2023-04-03T11:02:57;5.47;;;1.00;;
28862;SDS011;15994;51.796;13.006;2023-04-03T11:05:34;3.65;;;1.00;;
28862;SDS011;15994;51.796;13.006;2023-04-03T11:08:17;5.97;;;1.52;;
28862;SDS011;15994;51.796;13.006;2023-04-03T11:11:17;6.78;;;1.20;;
28862;SDS011;15994;51.796;13.006;2023-04-03T11:16:19;3.67;;;1.02;;
28862;SDS011;15994;51.796;13.006;2023-04-03T11:18:59;2.47;;;0.90;;
28862;SDS011;15994;51.796;13.006;2023-04-03T11:21:45;4.88;;;0.80;;
28862;SDS011;15994;51.796;13.006;2023-04-03T11:24:23;2.65;;;0.90;;
28862;SDS011;15994;51.796;13.006;2023-04-03T11:26:52;3.15;;;1.02;;
28862;SDS011;15994;51.796;13.006;2023-04-03T11:29:23;4.13;;;1.25;;
28862;SDS011;15994;51.796;13.006;2023-04-03T11:34:44;2.60;;;0.90;;
28862;SDS011;15994;51.796;13.006;2023-04-03T11:37:16;4.80;;;1.05;;
28862;SDS011;15994;51.796;13.006;2023-04-03T11:39:56;3.75;;;1.05;;
28862;SDS011;15994;51.796;13.006;2023-04-03T11:45:15;5.13;;;1.30;;
28862;SDS011;15994;51.796;13.006;2023-04-03T11:47:52;5.65;;;1.00;;
28862;SDS011;15994;51.796;13.006;2023-04-03T11:50:31;5.53;;;1.30;;
28862;SDS011;15994;51.796;13.006;2023-04-03T11:53:43;3.00;;;0.98;;
28862;SDS011;15994;51.796;13.006;2023-04-03T11:58:18;4.78;;;1.00;;
28862;SDS011;15994;51.796;13.006;2023-04-03T12:00:55;6.50;;;1.27;;
28862;SDS011;15994;51.796;13.006;2023-04-03T12:05:56;5.03;;;1.20;;
28862;SDS011;15994;51.796;13.006;2023-04-03T12:08:24;4.78;;;0.98;;
28862;SDS011;15994;51.796;13.006;2023-04-03T12:13:36;5.70;;;1.25;;
28862;SDS011;15994;51.796;13.006;2023-04-03T12:16:05;5.50;;;1.33;;
28862;SDS011;15994;51.796;13.006;2023-04-03T12:21:11;4.80;;;1.20;;
28862;SDS011;15994;51.796;13.006;2023-04-03T12:23:59;3.70;;;1.02;;
28862;SDS011;15994;51.796;13.006;2023-04-03T12:27:01;6.22;;;1.48;;
28862;SDS011;15994;51.796;13.006;2023-04-03T12:40:36;4.53;;;0.93;;
28862;SDS011;15994;51.796;13.006;2023-04-03T12:43:17;2.40;;;0.80;;
28862;SDS011;15994;51.796;13.006;2023-04-03T12:51:20;5.07;;;1.08;;
28862;SDS011;15994;51.796;13.006;2023-04-03T12:53:56;4.75;;;1.05;;
28862;SDS011;15994;51.796;13.006;2023-04-03T12:56:28;3.80;;;0.90;;
28862;SDS011;15994;51.796;13.006;2023-04-03T12:59:12;2.83;;;0.90;;
28862;SDS011;15994;51.796;13.006;2023-04-03T13:01:41;4.28;;;0.90;;
28862;SDS011;15994;51.796;13.006;2023-04-03T13:04:10;5.00;;;1.05;;
28862;SDS011;15994;51.796;13.006;2023-04-03T13:06:39;2.13;;;0.70;;
28862;SDS011;15994;51.796;13.006;2023-04-03T13:09:24;5.43;;;1.00;;
28862;SDS011;15994;51.796;13.006;2023-04-03T13:11:57;3.70;;;0.80;;
28862;SDS011;15994;51.796;13.006;2023-04-03T13:14:29;3.75;;;1.10;;
28862;SDS011;15994;51.796;13.006;2023-04-03T13:17:02;2.92;;;0.85;;
28862;SDS011;15994;51.796;13.006;2023-04-03T13:19:36;3.88;;;1.13;;
28862;SDS011;15994;51.796;13.006;2023-04-03T13:22:04;3.08;;;1.00;;
28862;SDS011;15994;51.796;13.006;2023-04-03T13:24:40;2.88;;;0.95;;
28862;SDS011;15994;51.796;13.006;2023-04-03T13:27:10;2.90;;;0.80;;
28862;SDS011;15994;51.796;13.006;2023-04-03T13:29:38;2.72;;;0.80;;
28862;SDS011;15994;51.796;13.006;2023-04-03T13:32:06;3.72;;;1.25;;
28862;SDS011;15994;51.796;13.006;2023-04-03T13:34:37;1.58;;;0.70;;
28862;SDS011;15994;51.796;13.006;2023-04-03T13:37:06;4.18;;;0.95;;
28862;SDS011;15994;51.796;13.006;2023-04-03T13:39:44;3.33;;;1.42;;
28862;SDS011;15994;51.796;13.006;2023-04-03T13:42:16;3.70;;;0.90;;
28862;SDS011;15994;51.796;13.006;2023-04-03T13:44:48;3.83;;;0.95;;
28862;SDS011;15994;51.796;13.006;2023-04-03T13:47:22;3.03;;;0.70;;
28862;SDS011;15994;51.796;13.006;2023-04-03T13:50:00;4.70;;;1.40;;
28862;SDS011;15994;51.796;13.006;2023-04-03T13:52:42;3.63;;;1.13;;
28862;SDS011;15994;51.796;13.006;2023-04-03T13:57:57;5.30;;;1.33;;
28862;SDS011;15994;51.796;13.006;2023-04-03T14:03:19;3.38;;;1.05;;
28862;SDS011;15994;51.796;13.006;2023-04-03T14:05:54;2.92;;;1.40;;
28862;SDS011;15994;51.796;13.006;2023-04-03T14:08:21;5.53;;;1.13;;
28862;SDS011;15994;51.796;13.006;2023-04-03T14:10:48;2.85;;;0.90;;
28862;SDS011;15994;51.796;13.006;2023-04-03T14:13:15;1.63;;;0.68;;
28862;SDS011;15994;51.796;13.006;2023-04-03T14:15:43;2.05;;;0.88;;
28862;SDS011;15994;51.796;13.006;2023-04-03T14:18:11;1.67;;;0.85;;
28862;SDS011;15994;51.796;13.006;2023-04-03T14:20:40;1.13;;;0.70;;
28862;SDS011;15994;51.796;13.006;2023-04-03T14:23:07;2.55;;;0.70;;
28862;SDS011;15994;51.796;13.006;2023-04-03T14:25:34;1.73;;;0.70;;
28862;SDS011;15994;51.796;13.006;2023-04-03T14:28:01;2.45;;;0.75;;
28862;SDS011;15994;51.796;13.006;2023-04-03T14:30:37;3.53;;;0.90;;
28862;SDS011;15994;51.796;13.006;2023-04-03T14:33:05;3.22;;;1.10;;
28862;SDS011;15994;51.796;13.006;2023-04-03T14:35:32;1.50;;;0.63;;
28862;SDS011;15994;51.796;13.006;2023-04-03T14:37:58;1.95;;;0.80;;
28862;SDS011;15994;51.796;13.006;2023-04-03T14:40:26;2.67;;;0.90;;
28862;SDS011;15994;51.796;13.006;2023-04-03T14:42:53;2.03;;;0.80;;
28862;SDS011;15994;51.796;13.006;2023-04-03T14:45:22;2.08;;;1.00;;
28862;SDS011;15994;51.796;13.006;2023-04-03T14:47:50;2.42;;;0.75;;
28862;SDS011;15994;51.796;13.006;2023-04-03T14:50:20;3.13;;;0.93;;
28862;SDS011;15994;51.796;13.006;2023-04-03T14:52:50;4.03;;;1.08;;
28862;SDS011;15994;51.796;13.006;2023-04-03T14:55:20;2.90;;;1.00;;
28862;SDS011;15994;51.796;13.006;2023-04-03T14:57:48;5.18;;;1.27;;
28862;SDS011;15994;51.796;13.006;2023-04-03T15:00:16;2.38;;;0.90;;
28862;SDS011;15994;51.796;13.006;2023-04-03T15:02:45;5.82;;;1.00;;
28862;SDS011;15994;51.796;13.006;2023-04-03T15:05:12;3.08;;;1.20;;
28862;SDS011;15994;51.796;13.006;2023-04-03T15:07:41;2.70;;;1.13;;
28862;SDS011;15994;51.796;13.006;2023-04-03T15:10:20;3.05;;;1.08;;
28862;SDS011;15994;51.796;13.006;2023-04-03T15:12:50;3.55;;;1.20;;
28862;SDS011;15994;51.796;13.006;2023-04-03T15:15:17;2.90;;;1.30;;
28862;SDS011;15994;51.796;13.006;2023-04-03T15:17:45;3.63;;;1.05;;
28862;SDS011;15994;51.796;13.006;2023-04-03T15:20:19;3.50;;;1.10;;
28862;SDS011;15994;51.796;13.006;2023-04-03T15:22:47;2.72;;;1.00;;
28862;SDS011;15994;51.796;13.006;2023-04-03T15:25:14;3.80;;;1.27;;
28862;SDS011;15994;51.796;13.006;2023-04-03T15:27:40;3.55;;;1.00;;
28862;SDS011;15994;51.796;13.006;2023-04-03T15:30:10;4.47;;;2.00;;
28862;SDS011;15994;51.796;13.006;2023-04-03T15:32:40;3.85;;;1.23;;
28862;SDS011;15994;51.796;13.006;2023-04-03T15:35:07;3.78;;;2.10;;
28862;SDS011;15994;51.796;13.006;2023-04-03T15:37:33;4.30;;;1.42;;
28862;SDS011;15994;51.796;13.006;2023-04-03T15:40:00;2.88;;;1.55;;
28862;SDS011;15994;51.796;13.006;2023-04-03T15:42:27;3.30;;;1.40;;
28862;SDS011;15994;51.796;13.006;2023-04-03T15:44:53;4.20;;;1.08;;
28862;SDS011;15994;51.796;13.006;2023-04-03T15:47:20;3.70;;;1.55;;
28862;SDS011;15994;51.796;13.006;2023-04-03T15:49:47;3.05;;;1.10;;
28862;SDS011;15994;51.796;13.006;2023-04-03T15:52:14;5.03;;;1.42;;
28862;SDS011;15994;51.796;13.006;2023-04-03T15:54:40;5.03;;;1.83;;
28862;SDS011;15994;51.796;13.006;2023-04-03T15:57:07;5.85;;;1.63;;
28862;SDS011;15994;51.796;13.006;2023-04-03T15:59:34;4.18;;;1.52;;